Time;durP1;ratioP1;P1;durP2;ratioP2;P2;SDS_P1;SDS_P2;PMS_P1;PMS_P2;Temp;Humidity;BMP_temperature;BMP_pressure;BME280_temperature;BME280_humidity;BME280_pressure;Samples;Min_cycle;Max_cycle;Signal;HPM_P1;HPM_P2
2022/04/13 00:00:17;;;;;;;81.88;46.42;;;6.50;1.00;;;;;;5052292;28;20144;-76
2022/04/13 00:02:46;;;;;;;120.82;70.63;;;6.40;1.00;;;;;;5052253;28;20052;-78
2022/04/13 00:05:13;;;;;;;70.95;42.20;;;6.30;1.00;;;;;;5052573;28;20067;-77
2022/04/13 00:07:41;;;;;;;75.70;41.30;;;6.30;1.00;;;;;;5055158;28;20044;-76
2022/04/13 00:10:09;;;;;;;70.68;40.38;;;6.20;42.00;;;;;;5051443;28;20132;-77
2022/04/13 00:12:37;;;;;;;49.35;27.55;;;6.20;52.30;;;;;;5053754;28;20123;-77
2022/04/13 00:15:07;;;;;;;47.13;26.40;;;6.20;99.90;;;;;;5052563;28;20134;-76
2022/04/13 00:17:35;;;;;;;53.88;33.28;;;6.10;99.90;;;;;;5045283;28;20128;-77
2022/04/13 00:20:05;;;;;;;67.63;37.33;;;6.20;99.90;;;;;;5053498;28;20041;-76
2022/04/13 00:22:33;;;;;;;77.43;41.83;;;6.10;99.90;;;;;;5053345;28;20462;-77
2022/04/13 00:25:00;;;;;;;74.50;40.30;;;6.10;99.90;;;;;;5054223;28;20056;-77
2022/04/13 00:27:28;;;;;;;70.28;40.17;;;6.10;99.90;;;;;;5053034;28;20057;-76
2022/04/13 00:29:56;;;;;;;69.85;38.83;;;6.00;99.90;;;;;;5053622;28;20045;-77
2022/04/13 00:32:23;;;;;;;67.15;38.05;;;5.90;99.90;;;;;;5054481;28;20037;-78
2022/04/13 00:34:51;;;;;;;70.07;38.22;;;5.80;99.90;;;;;;5056986;28;20135;-77
2022/04/13 00:37:19;;;;;;;62.58;35.90;;;5.90;1.00;;;;;;5056128;28;20049;-78
2022/04/13 00:39:47;;;;;;;62.60;36.80;;;5.90;99.90;;;;;;5057151;28;20033;-77
2022/04/13 00:42:16;;;;;;;60.10;35.63;;;5.80;99.90;;;;;;5057467;28;20075;-77
2022/04/13 00:44:44;;;;;;;61.15;34.00;;;5.80;99.90;;;;;;5057243;28;20143;-77
2022/04/13 00:47:12;;;;;;;65.50;38.03;;;5.80;1.00;;;;;;5056762;28;20068;-76
2022/04/13 00:49:41;;;;;;;58.13;32.30;;;5.80;99.90;;;;;;5062298;28;20053;-76
2022/04/13 00:52:08;;;;;;;51.83;28.33;;;5.70;99.90;;;;;;5063105;28;20053;-76
2022/04/13 00:54:42;;;;;;;48.63;26.33;;;5.70;1.00;;;;;;5059578;28;20550;-77
2022/04/13 00:57:11;;;;;;;51.30;27.65;;;5.70;1.00;;;;;;5058608;28;20051;-77
2022/04/13 00:59:40;;;;;;;51.80;30.60;;;5.70;1.00;;;;;;5058354;28;20128;-77
2022/04/13 01:02:08;;;;;;;57.20;33.03;;;5.60;1.00;;;;;;5057548;28;20059;-77
2022/04/13 01:04:36;;;;;;;58.63;33.88;;;5.60;1.00;;;;;;5057690;28;20065;-76
2022/04/13 01:07:07;;;;;;;62.08;33.90;;;5.50;1.00;;;;;;5057602;28;20073;-76
2022/04/13 01:09:36;;;;;;;61.42;33.95;;;5.50;1.00;;;;;;5056723;28;20045;-77
2022/04/13 01:12:06;;;;;;;68.13;35.08;;;5.40;1.00;;;;;;5057307;28;20064;-76
2022/04/13 01:14:34;;;;;;;56.47;33.22;;;5.60;1.00;;;;;;5056594;28;20443;-78
2022/04/13 01:17:02;;;;;;;65.90;35.03;;;5.50;1.00;;;;;;5056967;28;20041;-77
2022/04/13 01:19:31;;;;;;;55.22;31.55;;;5.40;1.00;;;;;;5056873;28;20132;-76
2022/04/13 01:22:03;;;;;;;52.35;30.67;;;5.30;1.00;;;;;;5055720;28;20037;-77
2022/04/13 01:24:33;;;;;;;52.75;31.42;;;5.20;1.00;;;;;;5048532;28;20060;-76
2022/04/13 01:27:01;;;;;;;58.08;32.38;;;5.20;1.00;;;;;;5056252;28;20083;-77
2022/04/13 01:29:28;;;;;;;58.85;32.72;;;5.20;1.00;;;;;;5056925;28;20045;-78
2022/04/13 01:31:57;;;;;;;60.15;32.90;;;5.10;1.00;;;;;;5056322;28;20128;-78
2022/04/13 01:34:25;;;;;;;54.20;31.52;;;5.10;27.30;;;;;;5055226;28;20037;-77
2022/04/13 01:36:52;;;;;;;60.10;32.22;;;5.00;99.90;;;;;;5056112;28;20052;-76
2022/04/13 01:39:20;;;;;;;53.42;28.95;;;5.00;99.90;;;;;;5056536;28;20076;-77
2022/04/13 01:41:49;;;;;;;50.45;27.50;;;5.00;99.90;;;;;;5056739;28;20045;-76
2022/04/13 01:44:17;;;;;;;47.60;27.08;;;5.00;99.90;;;;;;5055727;28;20044;-76
2022/04/13 01:46:45;;;;;;;43.83;26.08;;;5.00;99.90;;;;;;5057002;28;20045;-78
2022/04/13 01:49:13;;;;;;;46.70;27.00;;;5.00;99.90;;;;;;5056479;28;20047;-77
2022/04/13 01:51:40;;;;;;;41.90;24.92;;;5.00;99.90;;;;;;5056652;28;20435;-78
2022/04/13 01:54:08;;;;;;;44.17;26.15;;;5.00;99.90;;;;;;5055791;28;20110;-77
2022/04/13 01:56:35;;;;;;;43.08;26.10;;;4.90;99.90;;;;;;5056205;28;20045;-78
2022/04/13 01:59:04;;;;;;;41.45;24.10;;;4.90;99.90;;;;;;5055256;28;20053;-76
2022/04/13 02:01:34;;;;;;;43.03;25.60;;;4.90;1.00;;;;;;5056372;28;20037;-77
2022/04/13 02:04:03;;;;;;;46.45;25.83;;;4.90;1.00;;;;;;5055558;28;20463;-76
2022/04/13 02:06:31;;;;;;;49.00;27.83;;;4.80;1.00;;;;;;5055347;28;20059;-77
2022/04/13 02:08:58;;;;;;;54.75;28.67;;;4.70;99.90;;;;;;5055762;28;20416;-77
2022/04/13 02:11:26;;;;;;;48.85;28.05;;;4.80;1.00;;;;;;5054353;28;20076;-76
2022/04/13 02:13:53;;;;;;;45.63;26.85;;;4.70;1.00;;;;;;5054409;28;20427;-78
2022/04/13 02:16:22;;;;;;;52.75;27.52;;;4.70;1.00;;;;;;5055728;28;20075;-78
2022/04/13 02:18:50;;;;;;;48.72;26.92;;;4.70;1.00;;;;;;5054492;28;20060;-78
2022/04/13 02:21:18;;;;;;;47.30;25.33;;;4.70;1.00;;;;;;5055598;28;20454;-77
2022/04/13 02:23:46;;;;;;;52.75;26.55;;;4.70;98.60;;;;;;5053817;28;20102;-77
2022/04/13 02:26:14;;;;;;;45.38;24.67;;;4.70;1.00;;;;;;5055737;28;20071;-76
2022/04/13 02:28:42;;;;;;;51.13;26.38;;;4.60;1.00;;;;;;5054248;28;20041;-77
2022/04/13 02:31:09;;;;;;;46.75;24.88;;;4.70;1.00;;;;;;5055225;28;20454;-76
2022/04/13 02:33:39;;;;;;;42.47;22.23;;;4.60;1.00;;;;;;5054333;28;20150;-77
2022/04/13 02:36:07;;;;;;;46.97;23.88;;;4.60;1.00;;;;;;5055371;28;20037;-78
2022/04/13 02:38:35;;;;;;;50.17;25.00;;;4.60;46.20;;;;;;5055208;28;20061;-77
2022/04/13 02:41:04;;;;;;;53.70;27.33;;;4.70;1.00;;;;;;5055857;28;20044;-78
2022/04/13 02:43:32;;;;;;;58.00;27.25;;;4.70;1.00;;;;;;5060377;28;20055;-77
2022/04/13 02:45:59;;;;;;;41.75;21.70;;;4.70;1.00;;;;;;5069410;28;20049;-77
2022/04/13 02:48:28;;;;;;;39.50;22.27;;;4.50;99.90;;;;;;5069295;28;20059;-77
2022/04/13 02:50:57;;;;;;;39.58;22.42;;;4.50;1.00;;;;;;5068411;28;20098;-77
2022/04/13 02:53:26;;;;;;;41.17;20.70;;;4.50;1.00;;;;;;5069730;28;20051;-77
2022/04/13 02:55:54;;;;;;;44.28;21.92;;;4.50;1.00;;;;;;5056088;28;20072;-75
2022/04/13 02:58:21;;;;;;;45.60;21.13;;;4.50;1.00;;;;;;5057157;28;20045;-77
2022/04/13 03:00:49;;;;;;;50.75;23.70;;;4.40;1.00;;;;;;5056486;28;20045;-77
2022/04/13 03:03:17;;;;;;;40.83;22.70;;;4.40;1.00;;;;;;5057164;28;20124;-77
2022/04/13 03:05:45;;;;;;;44.50;21.77;;;4.40;1.00;;;;;;5054713;28;20048;-77
2022/04/13 03:08:14;;;;;;;44.40;22.85;;;4.30;43.60;;;;;;5054282;28;20052;-76
2022/04/13 03:10:43;;;;;;;44.60;23.85;;;4.20;1.00;;;;;;5053546;28;20136;-76
2022/04/13 03:13:11;;;;;;;43.67;23.15;;;4.20;99.90;;;;;;5054036;28;20475;-77
2022/04/13 03:15:39;;;;;;;40.97;21.88;;;4.20;99.90;;;;;;5053571;28;20048;-76
2022/04/13 03:18:06;;;;;;;39.95;21.83;;;4.30;99.90;;;;;;5055040;28;20049;-76
2022/04/13 03:20:34;;;;;;;38.03;22.52;;;4.30;99.90;;;;;;5054910;28;20049;-77
2022/04/13 03:23:02;;;;;;;55.53;27.10;;;4.30;99.90;;;;;;5057152;28;20041;-78
2022/04/13 03:25:33;;;;;;;51.38;26.70;;;4.20;48.30;;;;;;5055467;28;20045;-78
2022/04/13 03:28:00;;;;;;;49.35;27.70;;;4.10;1.00;;;;;;5055487;28;20055;-77
2022/04/13 03:30:28;;;;;;;51.78;29.75;;;4.10;70.90;;;;;;5056462;28;20052;-76
2022/04/13 03:32:56;;;;;;;47.15;27.27;;;4.00;99.90;;;;;;5054700;28;20049;-76
2022/04/13 03:35:23;;;;;;;46.47;27.25;;;4.00;1.00;;;;;;5054833;28;20500;-77
2022/04/13 03:37:51;;;;;;;50.40;28.35;;;4.00;1.00;;;;;;5056674;28;20045;-77
2022/04/13 03:40:19;;;;;;;59.10;35.20;;;4.00;1.00;;;;;;5054181;28;20049;-77
2022/04/13 03:42:48;;;;;;;76.65;50.15;;;3.90;1.00;;;;;;5053600;28;20068;-76
2022/04/13 03:45:15;;;;;;;73.85;42.45;;;3.90;1.00;;;;;;5055096;28;20120;-75
2022/04/13 03:47:43;;;;;;;60.95;33.72;;;4.00;1.00;;;;;;5053861;28;20033;-78
2022/04/13 03:50:12;;;;;;;58.10;30.45;;;4.00;1.00;;;;;;5053246;28;20486;-77
2022/04/13 03:52:40;;;;;;;58.55;29.65;;;3.90;99.90;;;;;;5054318;28;20041;-77
2022/04/13 03:55:09;;;;;;;55.50;27.70;;;3.90;1.00;;;;;;5054968;28;20121;-78
2022/04/13 03:57:37;;;;;;;50.00;28.98;;;3.90;1.00;;;;;;5052900;28;20089;-77
2022/04/13 04:00:08;;;;;;;51.97;30.17;;;4.00;1.00;;;;;;5054050;28;20049;-77
2022/04/13 04:02:43;;;;;;;55.97;30.73;;;4.00;1.00;;;;;;5054100;28;20415;-77
2022/04/13 04:05:11;;;;;;;60.08;34.42;;;4.00;99.90;;;;;;5053206;28;20052;-77
2022/04/13 04:07:39;;;;;;;63.97;34.70;;;4.00;96.10;;;;;;5056065;28;20048;-76
2022/04/13 04:10:09;;;;;;;57.30;33.17;;;4.00;99.90;;;;;;5056950;28;20083;-77
2022/04/13 04:12:40;;;;;;;60.88;30.35;;;3.90;41.60;;;;;;5059236;28;20470;-77
2022/04/13 04:15:11;;;;;;;57.55;31.23;;;3.90;91.60;;;;;;5056466;28;20104;-77
2022/04/13 04:17:39;;;;;;;53.58;29.40;;;3.90;99.90;;;;;;5056575;28;20037;-76
2022/04/13 04:20:08;;;;;;;64.35;32.20;;;3.90;82.30;;;;;;5057706;28;20131;-76
2022/04/13 04:22:36;;;;;;;53.65;27.35;;;3.90;99.90;;;;;;5055975;28;20140;-77
2022/04/13 04:25:04;;;;;;;50.75;28.30;;;3.90;99.90;;;;;;5057597;28;20041;-77
2022/04/13 04:27:31;;;;;;;68.28;35.45;;;4.10;1.00;;;;;;5056255;28;20052;-77
2022/04/13 04:29:59;;;;;;;64.72;34.38;;;4.20;99.90;;;;;;5055709;28;20055;-78
2022/04/13 04:32:28;;;;;;;62.17;34.90;;;4.30;99.90;;;;;;5055628;28;20049;-76
2022/04/13 04:34:56;;;;;;;56.03;28.38;;;4.40;1.00;;;;;;5058179;28;20037;-77
2022/04/13 04:37:23;;;;;;;48.97;23.98;;;4.50;99.90;;;;;;5057618;28;20052;-77
2022/04/13 04:39:51;;;;;;;46.60;21.75;;;4.50;99.90;;;;;;5056652;28;20049;-77
2022/04/13 04:42:21;;;;;;;50.08;23.13;;;4.70;99.90;;;;;;5056663;28;20052;-77
2022/04/13 04:44:49;;;;;;;42.22;23.50;;;4.70;22.10;;;;;;5056766;28;20045;-76
2022/04/13 04:47:16;;;;;;;46.78;23.70;;;4.80;1.00;;;;;;5058717;28;20051;-76
2022/04/13 04:49:45;;;;;;;42.75;22.92;;;4.90;1.00;;;;;;5056924;28;20047;-77
2022/04/13 04:52:13;;;;;;;44.53;25.02;;;5.00;1.00;;;;;;5056954;28;20091;-77
2022/04/13 04:54:40;;;;;;;47.17;26.08;;;5.10;1.00;;;;;;5059334;28;20041;-76
2022/04/13 04:57:08;;;;;;;52.92;29.52;;;5.10;1.00;;;;;;5062364;28;20094;-77
2022/04/13 04:59:35;;;;;;;52.65;29.63;;;5.10;99.90;;;;;;5060965;28;20037;-77
2022/04/13 05:02:03;;;;;;;62.08;31.88;;;5.10;99.90;;;;;;5061086;28;20044;-78
2022/04/13 05:04:31;;;;;;;57.13;31.98;;;5.20;99.90;;;;;;5067003;28;20061;-77
2022/04/13 05:07:00;;;;;;;55.70;33.40;;;5.20;99.90;;;;;;5070238;28;20053;-77
2022/04/13 05:09:28;;;;;;;56.25;31.50;;;5.30;42.70;;;;;;5065254;28;20162;-77
2022/04/13 05:11:55;;;;;;;56.85;32.97;;;5.50;1.00;;;;;;5114929;22;20040;-77
2022/04/13 05:14:25;;;;;;;65.43;32.28;;;5.50;1.00;;;;;;5094440;28;20057;-76
2022/04/13 05:16:52;;;;;;;59.22;32.05;;;5.60;1.00;;;;;;5097927;28;20119;-76
2022/04/13 05:19:20;;;;;;;71.85;35.38;;;5.70;1.00;;;;;;5108879;28;20047;-75
2022/04/13 05:21:47;;;;;;;59.40;35.08;;;5.80;1.00;;;;;;5115988;27;20039;-75
2022/04/13 05:24:16;;;;;;;65.60;34.30;;;6.00;1.00;;;;;;5137969;27;20035;-75
2022/04/13 05:26:43;;;;;;;64.97;37.33;;;6.20;1.00;;;;;;5096101;28;20072;-74
2022/04/13 05:29:11;;;;;;;61.10;37.40;;;6.50;99.90;;;;;;5100508;28;20043;-75
2022/04/13 05:31:42;;;;;;;66.78;36.95;;;6.60;99.90;;;;;;5107780;28;20040;-76
2022/04/13 05:34:10;;;;;;;65.15;36.90;;;6.80;99.90;;;;;;5083696;28;20134;-76
2022/04/13 05:36:37;;;;;;;62.00;37.00;;;7.00;99.90;;;;;;5110670;28;20055;-77
2022/04/13 05:39:05;;;;;;;66.15;36.78;;;7.30;43.70;;;;;;5106701;28;20428;-76
2022/04/13 05:41:35;;;;;;;63.03;37.38;;;7.60;1.00;;;;;;5105087;28;20409;-76
2022/04/13 05:44:02;;;;;;;60.70;33.72;;;7.80;1.00;;;;;;5115893;28;20501;-76
2022/04/13 05:46:29;;;;;;;54.53;32.97;;;8.10;1.00;;;;;;5121171;28;20069;-76
2022/04/13 05:48:57;;;;;;;56.97;32.20;;;8.30;1.00;;;;;;5097356;28;20104;-76
2022/04/13 05:51:24;;;;;;;68.80;38.03;;;8.60;1.00;;;;;;5103987;28;20050;-75
2022/04/13 05:53:52;;;;;;;73.82;39.75;;;8.90;1.00;;;;;;5090385;28;20577;-76
2022/04/13 05:56:20;;;;;;;57.45;34.35;;;9.30;1.00;;;;;;5097106;28;20048;-76
2022/04/13 05:58:48;;;;;;;49.60;29.20;;;9.70;1.00;;;;;;5116682;28;20039;-76
2022/04/13 06:01:16;;;;;;;50.33;29.30;;;10.00;99.90;;;;;;5117389;28;20043;-76
2022/04/13 06:03:43;;;;;;;51.92;30.63;;;10.10;99.90;;;;;;5098098;28;20043;-76
2022/04/13 06:06:11;;;;;;;42.92;25.45;;;10.40;99.90;;;;;;5098351;28;20520;-75
2022/04/13 06:08:38;;;;;;;45.58;24.15;;;10.50;99.90;;;;;;5098507;28;20490;-75
2022/04/13 06:11:06;;;;;;;41.20;26.85;;;10.70;99.90;;;;;;5097993;28;20407;-76
2022/04/13 06:13:33;;;;;;;41.95;26.88;;;10.70;99.90;;;;;;5116775;28;20050;-77
2022/04/13 06:16:02;;;;;;;41.53;25.08;;;10.70;99.90;;;;;;5098586;28;20051;-75
2022/04/13 06:18:30;;;;;;;36.90;24.48;;;10.80;95.40;;;;;;5117161;28;20051;-75
2022/04/13 06:20:58;;;;;;;40.05;24.92;;;11.20;73.40;;;;;;5100671;28;20139;-75
2022/04/13 06:23:28;;;;;;;48.40;25.05;;;11.60;39.50;;;;;;5102358;28;20044;-77
2022/04/13 06:25:58;;;;;;;40.40;26.05;;;11.80;1.00;;;;;;5095159;28;20139;-77
2022/04/13 06:28:25;;;;;;;41.85;26.00;;;11.90;1.00;;;;;;5095500;28;20082;-76
2022/04/13 06:30:53;;;;;;;49.53;30.38;;;12.20;1.00;;;;;;5119489;28;20065;-75
2022/04/13 06:33:22;;;;;;;39.13;25.20;;;12.50;1.00;;;;;;5112743;28;20048;-75
2022/04/13 06:35:50;;;;;;;44.47;26.88;;;12.70;1.00;;;;;;5102645;28;20047;-76
2022/04/13 06:38:17;;;;;;;42.17;23.92;;;12.80;1.00;;;;;;5110762;28;20040;-76
2022/04/13 06:40:45;;;;;;;42.53;24.38;;;13.00;1.00;;;;;;5134042;28;20040;-75
2022/04/13 06:43:13;;;;;;;30.88;21.30;;;13.20;1.00;;;;;;5103033;28;20040;-75
2022/04/13 06:45:40;;;;;;;38.08;21.77;;;13.40;1.00;;;;;;5105179;28;20054;-75
2022/04/13 06:48:09;;;;;;;39.42;23.42;;;13.50;1.00;;;;;;5114563;28;20047;-75
2022/04/13 06:50:38;;;;;;;44.97;22.33;;;13.60;1.00;;;;;;5133907;28;20043;-76
2022/04/13 06:53:06;;;;;;;38.75;22.73;;;13.80;1.00;;;;;;5133755;28;20126;-75
2022/04/13 06:55:34;;;;;;;30.63;19.38;;;14.00;1.00;;;;;;5134271;28;20048;-76
2022/04/13 06:58:02;;;;;;;37.92;21.98;;;14.10;1.00;;;;;;5113517;28;20048;-76
2022/04/13 07:00:30;;;;;;;42.20;24.40;;;14.30;1.00;;;;;;5133338;28;20077;-76
2022/04/13 07:02:57;;;;;;;42.25;23.33;;;14.40;1.00;;;;;;5131001;28;20044;-76
2022/04/13 07:05:25;;;;;;;39.15;21.90;;;14.60;1.00;;;;;;5112206;28;20055;-75
2022/04/13 07:07:55;;;;;;;38.78;22.08;;;14.70;1.00;;;;;;5111051;28;20054;-75
2022/04/13 07:10:23;;;;;;;37.28;21.92;;;14.80;1.00;;;;;;5128379;28;20052;-75
2022/04/13 07:12:50;;;;;;;33.00;20.90;;;15.00;1.00;;;;;;5131402;28;20048;-76
2022/04/13 07:15:18;;;;;;;37.83;21.27;;;15.10;1.00;;;;;;5132631;28;20051;-75
2022/04/13 07:17:46;;;;;;;38.40;20.50;;;15.20;1.00;;;;;;5113110;28;20047;-77
2022/04/13 07:20:16;;;;;;;41.28;24.50;;;15.50;1.00;;;;;;5132868;28;20035;-74
2022/04/13 07:22:44;;;;;;;32.00;18.90;;;15.60;1.00;;;;;;5127741;28;20608;-76
2022/04/13 07:25:14;;;;;;;26.63;16.75;;;15.80;1.00;;;;;;5128535;28;20047;-75
2022/04/13 07:27:42;;;;;;;37.00;19.55;;;16.00;1.00;;;;;;5111122;28;20122;-75
2022/04/13 07:30:13;;;;;;;30.45;19.10;;;16.30;1.00;;;;;;5132020;28;20071;-74
2022/04/13 07:32:43;;;;;;;43.47;26.55;;;16.50;1.00;;;;;;5114526;28;20051;-76
2022/04/13 07:35:10;;;;;;;40.47;21.70;;;16.70;1.00;;;;;;5110569;28;20054;-77
2022/04/13 07:37:39;;;;;;;25.15;16.80;;;16.90;1.00;;;;;;5128227;28;20069;-75
2022/04/13 07:40:09;;;;;;;27.33;16.45;;;17.00;1.00;;;;;;5133880;28;20522;-75
2022/04/13 07:42:38;;;;;;;26.63;16.15;;;17.20;1.00;;;;;;5114349;28;20043;-76
2022/04/13 07:45:08;;;;;;;27.90;14.20;;;17.10;1.00;;;;;;5102911;28;20380;-75
2022/04/13 07:47:36;;;;;;;23.63;14.35;;;17.30;1.00;;;;;;5098714;28;20051;-76
2022/04/13 07:50:04;;;;;;;20.38;13.65;;;17.50;1.00;;;;;;5095854;28;20040;-75
2022/04/13 07:52:34;;;;;;;20.10;12.05;;;17.60;1.00;;;;;;5079479;28;20040;-75
2022/04/13 07:55:01;;;;;;;16.92;11.02;;;17.70;1.00;;;;;;5114211;28;20047;-77
2022/04/13 07:57:29;;;;;;;15.73;11.13;;;17.80;1.00;;;;;;5138597;28;20068;-75
2022/04/13 07:59:58;;;;;;;16.02;10.02;;;17.90;1.00;;;;;;5140301;28;20498;-75
2022/04/13 08:02:26;;;;;;;18.05;10.68;;;18.00;1.00;;;;;;5131644;28;20106;-78
2022/04/13 08:04:55;;;;;;;16.42;9.07;;;18.20;1.00;;;;;;5090054;28;20048;-75
2022/04/13 08:07:23;;;;;;;18.60;10.95;;;18.30;1.00;;;;;;5090850;28;20080;-75
2022/04/13 08:09:50;;;;;;;19.90;9.98;;;17.90;1.00;;;;;;5113491;28;20039;-75
2022/04/13 08:12:18;;;;;;;13.20;8.30;;;17.80;1.00;;;;;;5088785;28;20055;-73
2022/04/13 08:14:49;;;;;;;14.07;9.20;;;17.80;1.00;;;;;;5106422;28;20062;-75
2022/04/13 08:17:18;;;;;;;17.17;7.55;;;17.70;1.00;;;;;;5079432;28;20147;-76
2022/04/13 08:19:46;;;;;;;14.98;8.65;;;17.80;1.00;;;;;;5106106;28;20032;-76
2022/04/13 08:22:17;;;;;;;12.38;7.25;;;17.90;1.00;;;;;;5113907;28;20040;-76
2022/04/13 08:24:45;;;;;;;11.35;6.65;;;17.90;1.00;;;;;;5096003;28;20134;-77
2022/04/13 08:27:12;;;;;;;14.07;7.85;;;18.10;1.00;;;;;;5094190;28;20044;-76
2022/04/13 08:29:41;;;;;;;14.43;8.00;;;18.10;1.00;;;;;;5112960;28;20500;-77
2022/04/13 08:32:09;;;;;;;15.50;8.95;;;18.20;1.00;;;;;;5095827;28;20074;-75
2022/04/13 08:34:38;;;;;;;11.77;6.85;;;18.10;1.00;;;;;;5113242;28;20043;-76
2022/04/13 08:37:05;;;;;;;10.18;6.32;;;18.10;1.00;;;;;;5115201;28;20069;-76
2022/04/13 08:39:33;;;;;;;11.52;6.43;;;18.20;1.00;;;;;;5096777;28;20050;-77
2022/04/13 08:42:07;;;;;;;10.45;6.03;;;18.30;1.00;;;;;;5096576;28;20052;-76
2022/04/13 08:44:43;;;;;;;12.32;6.65;;;18.50;1.00;;;;;;5116995;28;20040;-77
2022/04/13 08:47:15;;;;;;;14.48;6.90;;;18.50;1.00;;;;;;5098467;28;20130;-74
2022/04/13 08:49:48;;;;;;;8.73;5.22;;;18.60;1.00;;;;;;5097072;28;20040;-76
2022/04/13 08:52:19;;;;;;;12.48;6.28;;;18.40;1.00;;;;;;5096655;28;20057;-76
2022/04/13 08:54:57;;;;;;;11.32;6.03;;;18.40;1.00;;;;;;5117552;28;20039;-76
2022/04/13 08:57:29;;;;;;;12.60;5.45;;;18.50;1.00;;;;;;5118264;28;20039;-76
2022/04/13 09:00:06;;;;;;;9.52;5.20;;;18.60;1.00;;;;;;5100629;28;20448;-75
2022/04/13 09:02:49;;;;;;;9.50;5.78;;;18.70;1.00;;;;;;5101408;28;20097;-77
2022/04/13 09:05:20;;;;;;;12.20;6.10;;;18.90;1.00;;;;;;5118546;28;20490;-76
2022/04/13 09:07:50;;;;;;;9.65;5.65;;;18.90;1.00;;;;;;5100070;28;20409;-76
2022/04/13 09:10:20;;;;;;;7.50;4.93;;;19.00;1.00;;;;;;5126221;28;20137;-76
2022/04/13 09:12:50;;;;;;;7.85;5.15;;;18.50;1.00;;;;;;5119129;28;20027;-75
2022/04/13 09:15:19;;;;;;;9.95;5.38;;;18.40;1.00;;;;;;5138306;28;20071;-75
2022/04/13 09:17:50;;;;;;;13.68;5.13;;;18.40;1.00;;;;;;5138105;28;20048;-76
2022/04/13 09:20:19;;;;;;;7.15;4.80;;;18.40;1.00;;;;;;5136289;28;20054;-74
2022/04/13 09:22:48;;;;;;;8.25;4.07;;;18.20;1.00;;;;;;5114240;28;20054;-76
2022/04/13 09:25:15;;;;;;;11.30;5.43;;;18.00;1.00;;;;;;5127599;28;20083;-75
2022/04/13 09:27:43;;;;;;;8.18;5.50;;;18.10;1.00;;;;;;5107309;28;20055;-76
2022/04/13 09:30:13;;;;;;;7.68;4.43;;;18.00;1.00;;;;;;5123838;28;20067;-76
2022/04/13 09:32:40;;;;;;;9.88;4.68;;;18.10;1.00;;;;;;5124248;28;20032;-76
2022/04/13 09:35:09;;;;;;;8.57;4.05;;;18.00;1.00;;;;;;5122587;28;20045;-76
2022/04/13 09:37:38;;;;;;;13.80;5.38;;;18.10;1.00;;;;;;5118606;28;20059;-76
2022/04/13 09:40:06;;;;;;;8.38;4.30;;;18.10;1.00;;;;;;5100131;28;20414;-75
2022/04/13 09:42:36;;;;;;;9.63;4.57;;;18.10;1.00;;;;;;5102090;28;20054;-75
2022/04/13 09:45:05;;;;;;;7.90;4.55;;;18.00;1.00;;;;;;5101111;28;20047;-76
2022/04/13 09:47:33;;;;;;;9.73;4.78;;;17.90;1.00;;;;;;5123196;28;20586;-74
2022/04/13 09:50:01;;;;;;;6.63;4.20;;;18.10;1.00;;;;;;5118095;28;20470;-75
2022/04/13 09:52:33;;;;;;;6.03;3.75;;;18.10;1.00;;;;;;5118156;28;20120;-74
2022/04/13 09:55:05;;;;;;;10.50;4.20;;;18.20;1.00;;;;;;5119125;28;20044;-76
2022/04/13 09:57:33;;;;;;;9.27;4.00;;;18.30;1.00;;;;;;5118536;28;20062;-75
2022/04/13 10:00:03;;;;;;;7.13;3.70;;;18.30;1.00;;;;;;5118838;28;20040;-75
2022/04/13 10:02:40;;;;;;;10.50;4.43;;;18.50;1.00;;;;;;5117534;28;20399;-75
2022/04/13 10:05:09;;;;;;;6.25;3.42;;;18.40;1.00;;;;;;5118654;28;20402;-76
2022/04/13 10:07:37;;;;;;;7.78;3.40;;;18.60;1.00;;;;;;5100880;28;20189;-74
2022/04/13 10:10:22;;;;;;;7.35;3.53;;;18.50;1.00;;;;;;5117188;28;20042;-74
2022/04/13 10:12:50;;;;;;;8.27;3.67;;;18.20;1.00;;;;;;5118714;28;20066;-76
2022/04/13 10:15:17;;;;;;;9.80;4.68;;;18.40;1.00;;;;;;5122613;28;20069;-75
2022/04/13 10:17:45;;;;;;;7.38;3.83;;;18.50;1.00;;;;;;5100369;28;20058;-74
2022/04/13 10:20:12;;;;;;;8.55;4.28;;;18.50;1.00;;;;;;5099025;28;20075;-75
2022/04/13 10:22:58;;;;;;;6.85;3.80;;;18.50;1.00;;;;;;5116574;28;20139;-74
2022/04/13 10:25:28;;;;;;;7.47;4.03;;;18.30;1.00;;;;;;5117595;28;20059;-74
2022/04/13 10:27:56;;;;;;;8.57;4.10;;;18.20;1.00;;;;;;5117234;28;20035;-75
2022/04/13 10:30:28;;;;;;;8.00;4.32;;;18.40;1.00;;;;;;5099592;28;20051;-74
2022/04/13 10:33:02;;;;;;;6.38;3.65;;;18.40;1.00;;;;;;5117918;28;20047;-76
2022/04/13 10:35:31;;;;;;;8.90;3.65;;;18.30;1.00;;;;;;5098478;28;20130;-75
2022/04/13 10:37:58;;;;;;;7.70;4.32;;;18.50;1.00;;;;;;5116287;28;20399;-75
2022/04/13 10:40:32;;;;;;;6.18;3.42;;;18.50;1.00;;;;;;5097494;28;20035;-75
2022/04/13 10:43:01;;;;;;;6.93;3.80;;;18.50;1.00;;;;;;5097962;28;20409;-75
2022/04/13 10:45:30;;;;;;;7.55;4.05;;;18.30;1.00;;;;;;5097636;28;20486;-75
2022/04/13 10:48:01;;;;;;;7.07;3.70;;;18.30;1.00;;;;;;5116388;28;20101;-75
2022/04/13 10:50:33;;;;;;;6.68;4.00;;;18.40;1.00;;;;;;5117037;28;20039;-75
2022/04/13 10:53:12;;;;;;;7.43;3.42;;;18.50;1.00;;;;;;5116923;28;20047;-76
2022/04/13 10:55:43;;;;;;;7.32;3.92;;;18.50;1.00;;;;;;5133465;28;20067;-76
2022/04/13 10:58:19;;;;;;;7.75;3.83;;;18.50;1.00;;;;;;5135060;28;20046;-77
2022/04/13 11:00:49;;;;;;;5.93;3.88;;;18.30;1.00;;;;;;5136921;28;20047;-76
2022/04/13 11:03:19;;;;;;;8.68;3.85;;;18.40;1.00;;;;;;5135993;28;20356;-76
2022/04/13 11:05:47;;;;;;;9.40;4.55;;;18.50;1.00;;;;;;5104418;28;20048;-75
2022/04/13 11:08:22;;;;;;;7.07;3.58;;;18.50;1.00;;;;;;5117244;28;20063;-76
2022/04/13 11:10:52;;;;;;;5.97;3.63;;;18.60;1.00;;;;;;5112858;22;20070;-78
2022/04/13 11:13:20;;;;;;;7.22;4.20;;;18.90;1.00;;;;;;5085549;28;20048;-78
2022/04/13 11:15:49;;;;;;;7.55;3.78;;;19.10;1.00;;;;;;5101021;28;20131;-79
2022/04/13 11:18:18;;;;;;;9.65;4.15;;;19.30;1.00;;;;;;5100113;28;20047;-79
2022/04/13 11:21:05;;;;;;;6.97;3.70;;;19.10;1.00;;;;;;5095970;28;20051;-78
2022/04/13 11:23:56;;;;;;;6.38;3.92;;;18.80;1.00;;;;;;5097410;28;20500;-78
2022/04/13 11:26:49;;;;;;;6.43;3.70;;;18.60;1.00;;;;;;5075739;28;20116;-77
2022/04/13 11:29:18;;;;;;;5.55;3.53;;;18.70;1.00;;;;;;5095957;28;20062;-77
2022/04/13 11:32:10;;;;;;;7.80;3.58;;;18.70;1.00;;;;;;5095143;28;20071;-78
2022/04/13 11:34:40;;;;;;;6.93;3.78;;;18.80;1.00;;;;;;5094434;28;20511;-79
2022/04/13 11:37:09;;;;;;;9.95;3.75;;;18.90;1.00;;;;;;5096644;28;20040;-79
2022/04/13 11:39:53;;;;;;;8.07;4.03;;;19.00;1.00;;;;;;5108702;28;20068;-82
2022/04/13 11:42:51;;;;;;;7.82;3.63;;;18.90;1.00;;;;;;5109575;28;20386;-80
2022/04/13 11:45:19;;;;;;;7.25;3.58;;;18.70;1.00;;;;;;5109614;28;20040;-80
2022/04/13 11:47:54;;;;;;;6.22;3.50;;;18.50;1.00;;;;;;5106465;28;20074;-79
2022/04/13 11:50:23;;;;;;;6.88;3.15;;;18.50;1.00;;;;;;5107376;28;20370;-79
2022/04/13 11:52:53;;;;;;;6.80;3.60;;;18.40;1.00;;;;;;5106068;28;20082;-78
2022/04/13 11:55:22;;;;;;;5.22;3.40;;;18.50;1.00;;;;;;5105803;28;20123;-80
2022/04/13 11:58:22;;;;;;;7.53;3.63;;;18.70;1.00;;;;;;5105139;28;20047;-79
2022/04/13 12:01:03;;;;;;;8.70;3.75;;;18.80;1.00;;;;;;5101684;28;20055;-80
2022/04/13 12:03:32;;;;;;;7.53;3.65;;;18.70;1.00;;;;;;5108118;28;20120;-80
2022/04/13 12:06:01;;;;;;;5.55;3.08;;;18.80;1.00;;;;;;5110709;28;20059;-79
2022/04/13 12:08:31;;;;;;;7.65;3.15;;;18.70;1.00;;;;;;5112935;28;20070;-80
2022/04/13 12:11:01;;;;;;;7.57;3.75;;;18.80;1.00;;;;;;5114608;28;20111;-81
2022/04/13 12:13:32;;;;;;;5.88;4.00;;;18.90;1.00;;;;;;5113755;28;20099;-80
2022/04/13 12:16:05;;;;;;;10.75;3.88;;;18.80;1.00;;;;;;5112855;28;20078;-79
2022/04/13 12:18:33;;;;;;;5.85;2.85;;;18.70;1.00;;;;;;5113287;28;20031;-80
2022/04/13 12:21:11;;;;;;;6.53;3.30;;;18.70;1.00;;;;;;5113223;28;20044;-80
2022/04/13 12:23:40;;;;;;;12.68;6.75;;;18.60;1.00;;;;;;5112331;28;20044;-79
2022/04/13 12:26:08;;;;;;;8.13;3.75;;;18.80;1.00;;;;;;5116560;28;20082;-78
2022/04/13 12:28:36;;;;;;;5.55;2.80;;;19.00;1.00;;;;;;5112648;28;20079;-79
2022/04/13 12:31:07;;;;;;;8.00;3.65;;;19.20;1.00;;;;;;5111767;28;20048;-79
2022/04/13 12:33:35;;;;;;;6.40;2.88;;;19.20;1.00;;;;;;5114313;28;20116;-80
2022/04/13 12:36:05;;;;;;;4.88;3.10;;;19.10;1.00;;;;;;5109747;28;20056;-80
2022/04/13 12:38:34;;;;;;;4.25;2.75;;;18.90;1.00;;;;;;5107530;28;20051;-81
2022/04/13 12:41:12;;;;;;;5.13;3.50;;;18.90;1.00;;;;;;5109048;28;20055;-81
2022/04/13 12:43:43;;;;;;;5.05;3.00;;;18.90;1.00;;;;;;5110399;28;20093;-80
2022/04/13 12:46:19;;;;;;;6.30;2.92;;;19.00;1.00;;;;;;5111847;28;20048;-80
2022/04/13 12:48:49;;;;;;;6.45;2.97;;;18.80;1.00;;;;;;5111627;28;20135;-79
2022/04/13 12:51:20;;;;;;;9.88;3.63;;;18.70;1.00;;;;;;5111697;28;20040;-79
2022/04/13 12:53:55;;;;;;;4.93;3.33;;;18.80;1.00;;;;;;5112691;28;20047;-80
2022/04/13 12:56:25;;;;;;;7.47;3.22;;;18.90;1.00;;;;;;5112799;28;20054;-80